Montbello, Colorado
Current Conditions -  °F | °C
As of 6:58 AM on Thursday 30 Oct 2014 (Local Time) from KBKF Reporting Station
Scattered Clouds Scattered Clouds  
Wind Chill: 29°   Ceiling: Unl
Heat Index: 35°   Visibility: 10mi
Dew Point: 25°   Wind: 6mph
Humidity: 68%   Direction: 200°SSW
Pressure: 30.37"   Gusts: NA
Location:  39.7897°N, 104.858°W
Report Text: KBKF 301258Z 20005KT 10SM FEW110 SCT220 01/M04 A3037 RMK AO2A SLP258 T00141040
Loading
Personal Weather Stations






























Interactive Weather Map
Tropical Storm Tracking
New forecast layout! Learn more

10-Day Weather Forecast

Advertisements
Track Severe Weather on mobile